• Join FlightAware (Why Join?)
  • Login
  • US Flag 
02:00AM EDT


 

Airport Tracker/Info


-or-


 

Live Flight TrackerFlight Track Log ✈ SWA946 ✈ 20-Apr-2013 ✈ KPHX - KSLC

Flight Track Log - Related Links

Times and Time Zones

All times are in EDT time to prevent confusion due to time zone crossing. See the SWA946 flight status page for this flight to view local times or setup timezone preferences in your user account.

Time Position Orientation Groundspeed Altitude Reporting Facility
EDT Latitude Longitude Course Direction KTS MPH feet Rate Location/Type
06:44PM 33.4333 -112.0500 270° West 180 207 2,800  Level Phoenix TRACON
06:45PM 33.4331 -112.1086 270° West 208 239 4,800 2,520 Climbing Albuquerque Center
06:46PM 33.4506 -112.1861 285° West 252 290 7,700 2,700 Climbing Albuquerque Center
06:47PM 33.5214 -112.1689 11° North 273 314 10,400 2,340 Climbing Albuquerque Center
06:48PM 33.6097 -112.0947 35° Northeast 328 377 12,500 2,100 Climbing Albuquerque Center
06:49PM 33.6931 -112.0264 34° Northeast 361 415 14,800 2,220 Climbing Albuquerque Center
06:50PM 33.7778 -111.9564 34° Northeast 370 426 17,100 2,280 Climbing Albuquerque Center
06:51PM 33.8736 -111.8767 35° Northeast 380 437 19,500 1,920 Climbing Albuquerque Center
06:52PM 33.9664 -111.7997 35° Northeast 401 461 21,100 1,620 Climbing Albuquerque Center
06:53PM 34.0619 -111.7233 34° Northeast 412 474 22,900 1,560 Climbing Albuquerque Center
06:54PM 34.1783 -111.6772 18° North 409 471 24,400 1,200 Climbing Albuquerque Center
06:55PM 34.2819 -111.6386 17° North 421 484 25,400 1,380 Climbing Albuquerque Center
06:56PM 34.3947 -111.5939 18° North 427 491 27,300 1,860 Climbing Albuquerque Center
06:57PM 34.5039 -111.5506 18° North 419 482 29,300 1,680 Climbing Albuquerque Center
06:58PM 34.6078 -111.5506 360° North 386 444 30,800 1,320 Climbing Albuquerque Center
06:59PM 34.7089 -111.5733 350° North 372 428 32,100 1,260 Climbing Albuquerque Center
07:00PM 34.8275 -111.6008 349° North 365 420 33,400 900 Climbing Albuquerque Center
07:01PM 34.9283 -111.6239 349° North 368 423 34,000 240 Climbing Albuquerque Center
07:02PM 35.0294 -111.6481 349° North 370 426 34,000  Level Albuquerque Center
07:03PM 35.1317 -111.6725 349° North 373 429 34,000  Level Albuquerque Center
07:04PM 35.2264 -111.7219 337° Northwest 376 433 34,000  Level Albuquerque Center
07:05PM 35.3306 -111.7814 335° Northwest 369 425 34,000  Level Albuquerque Center
07:06PM 35.4219 -111.8333 335° Northwest 366 421 34,000  Level Albuquerque Center
07:07PM 35.5125 -111.8861 335° Northwest 365 420 34,000  Level Albuquerque Center
07:08PM 35.6031 -111.9383 335° Northwest 362 417 34,000  Level Albuquerque Center
07:09PM 35.6394 -111.9592 335° Northwest 363 418 34,000  Level Los Angeles Center
07:10PM 35.7294 -112.0125 334° Northwest 363 418 34,000  Level Los Angeles Center
07:11PM 35.8219 -112.0642 336° Northwest 365 420 34,000  Level Los Angeles Center
07:12PM 35.9133 -112.1178 335° Northwest 366 421 34,000  Level Los Angeles Center
07:13PM 36.0342 -112.1506 348° North 381 438 34,000  Level Los Angeles Center
07:14PM 36.1422 -112.1617 355° North 390 449 34,000  Level Los Angeles Center
07:15PM 36.2583 -112.1711 356° North 391 450 34,000  Level Los Angeles Center
07:16PM 36.3653 -112.1808 356° North 387 445 34,000  Level Los Angeles Center
07:17PM 36.4697 -112.1906 356° North 382 440 34,000  Level Los Angeles Center
07:18PM 36.5744 -112.2008 355° North 378 435 34,000  Level Los Angeles Center
07:19PM 36.6781 -112.2100 356° North 375 432 34,000  Level Los Angeles Center
07:20PM 36.7825 -112.2194 356° North 376 433 34,000  Level Los Angeles Center
07:21PM 36.9072 -112.2308 356° North 375 432 34,000  Level Los Angeles Center
07:22PM 37.0122 -112.2403 356° North 379 436 34,000  Level Los Angeles Center
07:23PM 37.1161 -112.2497 356° North 377 434 34,000  Level Los Angeles Center
07:24PM 37.2200 -112.2597 356° North 376 433 34,000  Level Los Angeles Center
07:25PM 37.3242 -112.2697 356° North 377 434 34,000  Level Los Angeles Center
07:26PM 37.4278 -112.2797 356° North 377 434 34,000  Level Los Angeles Center
07:27PM 37.5542 -112.2908 356° North 380 437 34,000  Level Salt Lake Center
07:28PM 37.6608 -112.3025 355° North 385 443 34,000  Level Salt Lake Center
07:29PM 37.7681 -112.3131 356° North 387 445 34,000  Level Salt Lake Center
07:30PM 37.8733 -112.3272 354° North 386 444 34,000  Level Salt Lake Center
07:31PM 37.9803 -112.3414 354° North 387 445 34,000  Level Salt Lake Center
07:32PM 38.0850 -112.3547 354° North 382 440 34,000  Level Salt Lake Center
07:33PM 38.1903 -112.3683 354° North 381 438 34,000 -360 Level Salt Lake Center
07:34PM 38.3144 -112.3836 354° North 376 433 33,300 -840 Descending Salt Lake Center
07:35PM 38.4161 -112.3958 355° North 369 425 32,300 -660 Descending Salt Lake Center
07:36PM 38.5203 -112.4081 355° North 375 432 32,000 -180 Descending Salt Lake Center
07:37PM 38.6239 -112.4203 355° North 375 432 32,000  Level Salt Lake Center
07:38PM 38.7278 -112.4328 355° North 376 433 32,000  Level Salt Lake Center
07:39PM 38.8333 -112.4475 354° North 381 438 32,000  Level Salt Lake Center
07:40PM 38.9383 -112.4603 355° North 379 436 32,000  Level Salt Lake Center
07:41PM 39.0433 -112.4731 355° North 379 436 32,000  Level Salt Lake Center
07:42PM 39.1475 -112.4858 355° North 377 434 32,000  Level Salt Lake Center
07:43PM 39.2608 -112.5003 354° North 378 435 32,000  Level Salt Lake Center
07:44PM 39.3667 -112.4867 North 387 445 32,000 -960 Level Salt Lake Center
07:45PM 39.4728 -112.4492 15° North 393 452 30,100 -2,100 Descending Salt Lake Center
07:47PM 39.5736 -112.4153 15° North 379 436 27,800 -2,520 Descending Salt Lake Center
07:48PM 39.6933 -112.3769 14° North 371 427 25,000 -2,460 Descending Salt Lake Center
07:49PM 39.7883 -112.3444 15° North 358 412 22,900 -2,160 Descending Salt Lake Center
07:49PM 39.8681 -112.3303 North 345 397 21,100 -2,040 Descending Salt Lake Center
07:51PM 39.9692 -112.2839 19° North 328 377 18,800 -1,860 Descending Salt Lake Center
07:52PM 40.0572 -112.2525 15° North 330 380 17,000 -900 Descending Salt Lake Center
07:53PM 40.1458 -112.2233 14° North 329 379 17,000 -780 Level Salt Lake Center
07:54PM 40.2350 -112.1925 15° North 333 383 15,500 -1,740 Descending Salt Lake Center
07:54PM 40.2767 -112.1861 North 331 381 14,600 -1,500 Descending Salt Lake Center
07:55PM 40.3228 -112.1628 21° North 327 376 14,000 -720 Descending Salt Lake Center
07:55PM 40.3589 -112.1558 North 315 362 13,900  Descending Salt Lake Center
07:56PM 40.4022 -112.1364 19° North 297 342 14,000  Climbing Salt Lake Center
07:56PM 40.4336 -112.1308 North 297 342 13,900 -1,020 Descending Salt Lake Center
07:57PM 40.4856 -112.1075 19° North 311 358 13,000 -1,140 Descending Salt Lake Center
07:57PM 40.5200 -112.0989 11° North 311 358 12,800 -1,020 Descending Salt Lake Center
07:58PM 40.5681 -112.0808 16° North 307 353 12,000 -900 Descending Salt Lake Center
07:58PM 40.6008 -112.0831 357° North 298 343 11,900 -900 Descending Salt Lake Center
07:59PM 40.6656 -112.0800 North 292 336 11,100 -540 Descending Salt Lake Center
08:00PM 40.7358 -112.0886 355° North 250 288 11,000 -300 Descending Salt Lake Center
08:01PM 40.8042 -112.0992 353° North 236 272 10,600 -960 Descending Salt Lake Center
08:02PM 40.8639 -112.1047 356° North 228 262 9,100 -1,500 Descending Salt Lake Center
08:03PM 40.9158 -112.0817 19° North 212 244 7,600 -1,500 Descending Salt Lake Center
08:04PM 40.9039 -112.0178 104° East 196 226 6,100 -1,200 Descending Salt Lake Center
08:05PM 40.8606 -112.0058 168° South 161 185 5,200 -900 Descending Salt Lake Center
08:06PM 40.8114 -112.0033 178° South 158 182 4,300 -900 Descending Salt Lake Center
08:08PM 40.7884 -111.9778 North  Level Estimated